Time;durP1;ratioP1;P1;durP2;ratioP2;P2;SDS_P1;SDS_P2;PMS_P1;PMS_P2;Temp;Humidity;BMP_temperature;BMP_pressure;BME280_temperature;BME280_humidity;BME280_pressure;Samples;Min_cycle;Max_cycle;Signal;HPM_P1;HPM_P2
2021/11/05 00:02:35;;;;;;;1.2;4;;;;;;;8;60.9;98370;;;;
2021/11/05 00:12:35;;;;;;;1.2;4;;;;;;;7.6;61.8;98420;;;;
2021/11/05 00:22:35;;;;;;;1.2;4;;;;;;;7.4;62.9;98430;;;;
2021/11/05 00:32:35;;;;;;;1.3;2.9;;;;;;;7.1;63.9;98440;;;;
2021/11/05 00:42:35;;;;;;;1.3;2.9;;;;;;;6.7;64.8;98450;;;;
2021/11/05 00:52:35;;;;;;;1.3;2.9;;;;;;;6.6;66.4;98470;;;;
2021/11/05 01:02:35;;;;;;;2.8;4.9;;;;;;;6.2;67;98480;;;;
2021/11/05 01:12:35;;;;;;;2.8;4.9;;;;;;;5.7;67.9;98490;;;;
2021/11/05 01:22:35;;;;;;;2.8;4.9;;;;;;;5.6;69.6;98490;;;;
2021/11/05 01:32:35;;;;;;;3;5.5;;;;;;;5.8;69.6;98500;;;;
2021/11/05 01:42:35;;;;;;;3;5.5;;;;;;;5.8;69.4;98510;;;;
2021/11/05 01:52:35;;;;;;;3;5.5;;;;;;;6;68.8;98500;;;;
2021/11/05 06:39:38;;;;;;;2;3.9;;;;;;;5.9;67.8;98770;;;;
2021/11/05 06:50:38;;;;;;;2;3.9;;;;;;;6.2;67.1;98780;;;;
2021/11/05 07:02:05;;;;;;;;;;;;;;;6.6;66;98800;;;;
2021/11/05 07:13:05;;;;;;;4;6.2;;;;;;;7.1;65.3;98800;;;;
2021/11/05 07:23:05;;;;;;;4;6.2;;;;;;;7.8;63;98820;;;;
2021/11/05 07:33:06;;;;;;;4;6.2;;;;;;;8.4;61.3;98810;;;;
2021/11/05 07:44:05;;;;;;;2.6;4.8;;;;;;;8.6;60.2;98840;;;;
2021/11/05 07:56:05;;;;;;;2.6;4.8;;;;;;;9.3;58.5;98840;;;;
2021/11/05 08:06:05;;;;;;;1.9;4;;;;;;;9.6;56.9;98850;;;;
2021/11/05 08:17:05;;;;;;;1.9;4;;;;;;;10;56;98880;;;;
2021/11/05 08:27:05;;;;;;;1.9;4;;;;;;;10.3;55.3;98870;;;;
2021/11/05 08:37:05;;;;;;;2.2;3.8;;;;;;;10.5;53.7;98890;;;;
2021/11/05 08:47:05;;;;;;;2.2;3.8;;;;;;;10.6;53;98900;;;;
2021/11/05 08:58:05;;;;;;;2.2;3.8;;;;;;;10.4;53.4;98920;;;;
2021/11/05 09:08:05;;;;;;;1.9;3.6;;;;;;;10.4;54.3;98930;;;;
2021/11/05 09:18:07;;;;;;;1.9;3.6;;;;;;;10.6;52.7;98940;;;;
2021/11/05 09:28:05;;;;;;;1.9;3.6;;;;;;;10.8;53.8;98950;;;;
2021/11/05 09:38:05;;;;;;;1.7;4.2;;;;;;;11.1;53.3;98960;;;;
2021/11/05 09:49:05;;;;;;;1.7;4.2;;;;;;;10.9;53.5;98970;;;;
2021/11/05 09:59:07;;;;;;;1.7;4.2;;;;;;;11.3;53.2;98940;;;;
2021/11/05 10:10:05;;;;;;;2;3.4;;;;;;;11.1;53.9;98980;;;;
2021/11/05 10:20:05;;;;;;;2;3.4;;;;;;;10.5;53.8;98980;;;;
2021/11/05 10:30:05;;;;;;;2;3.4;;;;;;;10.7;53.6;98980;;;;
2021/11/05 10:40:07;;;;;;;2.6;5.4;;;;;;;10.8;53.3;98990;;;;
2021/11/05 10:50:05;;;;;;;2.6;5.4;;;;;;;11.3;53.8;98990;;;;
2021/11/05 11:00:05;;;;;;;2.6;5.4;;;;;;;11.1;52.6;99010;;;;
2021/11/05 11:10:05;;;;;;;3.1;6.5;;;;;;;11.4;52.5;99000;;;;
2021/11/05 11:20:05;;;;;;;3.1;6.5;;;;;;;11.5;52.6;99000;;;;
2021/11/05 11:30:05;;;;;;;3.1;6.5;;;;;;;11.4;52;98990;;;;
2021/11/05 11:40:05;;;;;;;3;5.2;;;;;;;11.3;53.7;99000;;;;
2021/11/05 11:50:05;;;;;;;3;5.2;;;;;;;11.6;53.1;99020;;;;
2021/11/05 12:00:05;;;;;;;3;5.2;;;;;;;11.7;52.5;99050;;;;
2021/11/05 12:10:05;;;;;;;3.4;7.1;;;;;;;11.6;51.2;99030;;;;
2021/11/05 12:20:05;;;;;;;3.4;7.1;;;;;;;11.7;51;99020;;;;
2021/11/05 12:30:09;;;;;;;3.4;7.1;;;;;;;11.7;50.3;99010;;;;
2021/11/05 12:40:05;;;;;;;3;6.4;;;;;;;11.8;51.5;99020;;;;
2021/11/05 12:51:05;;;;;;;3;6.4;;;;;;;11.6;51.2;99010;;;;
2021/11/05 13:01:05;;;;;;;3;6.4;;;;;;;11.4;51.4;99020;;;;
2021/11/05 13:11:05;;;;;;;2.8;5.3;;;;;;;11.4;52.4;99020;;;;
2021/11/05 13:21:05;;;;;;;2.8;5.3;;;;;;;11.3;53.3;99020;;;;
2021/11/05 13:31:05;;;;;;;2.8;5.3;;;;;;;11.4;53.4;99040;;;;
2021/11/05 13:41:05;;;;;;;3;5.3;;;;;;;11;53.9;99080;;;;
2021/11/05 13:51:05;;;;;;;3;5.3;;;;;;;10.8;54.5;99090;;;;
2021/11/05 14:01:05;;;;;;;3;5.3;;;;;;;10.6;56.2;99100;;;;
2021/11/05 14:12:05;;;;;;;5.1;8.4;;;;;;;10.3;56.8;99110;;;;
2021/11/05 14:22:05;;;;;;;5.1;8.4;;;;;;;9.9;57.6;99130;;;;
2021/11/05 14:32:05;;;;;;;5.1;8.4;;;;;;;9.6;58.4;99150;;;;
2021/11/05 14:42:05;;;;;;;4.8;8.5;;;;;;;9.4;59.8;99170;;;;
2021/11/05 14:52:05;;;;;;;4.8;8.5;;;;;;;9.2;60.5;99180;;;;
2021/11/05 15:02:05;;;;;;;4.8;8.5;;;;;;;9;60.7;99180;;;;
2021/11/05 15:12:05;;;;;;;5.6;9.4;;;;;;;8.6;61.2;99200;;;;
2021/11/05 15:22:05;;;;;;;5.6;9.4;;;;;;;8.4;61.8;99200;;;;
2021/11/05 15:32:05;;;;;;;5.6;9.4;;;;;;;8;62.1;99220;;;;
2021/11/05 15:42:05;;;;;;;6.4;11.7;;;;;;;7.8;63.1;99220;;;;
2021/11/05 15:52:05;;;;;;;6.4;11.7;;;;;;;7.6;64;99220;;;;
2021/11/05 16:03:05;;;;;;;6.4;11.7;;;;;;;7.6;64.2;99250;;;;
2021/11/05 16:13:05;;;;;;;8.4;13.1;;;;;;;7.8;63.8;99250;;;;
2021/11/05 16:23:05;;;;;;;8.4;13.1;;;;;;;7.7;63.5;99260;;;;
2021/11/05 16:33:05;;;;;;;8.4;13.1;;;;;;;7.4;63.9;99280;;;;
2021/11/05 16:43:05;;;;;;;8.4;11;;;;;;;7.2;64.4;99270;;;;
2021/11/05 16:53:05;;;;;;;8.4;11;;;;;;;7;64.7;99300;;;;
2021/11/05 17:04:06;;;;;;;9.1;15.6;;;;;;;6.8;65.1;99290;;;;
2021/11/05 17:14:05;;;;;;;9.1;15.6;;;;;;;6.6;65.5;99310;;;;
2021/11/05 17:24:05;;;;;;;9.1;15.6;;;;;;;6.3;66.3;99310;;;;
2021/11/05 17:34:05;;;;;;;8.9;11.8;;;;;;;6.3;66.9;99340;;;;
2021/11/05 17:44:07;;;;;;;8.9;11.8;;;;;;;6.4;66.6;99360;;;;
2021/11/05 17:54:08;;;;;;;8.9;11.8;;;;;;;6.5;67;99360;;;;
2021/11/05 18:04:11;;;;;;;10.8;15.8;;;;;;;6.8;66.1;99380;;;;
2021/11/05 18:14:05;;;;;;;10.8;15.8;;;;;;;7;65.5;99390;;;;
2021/11/05 18:24:05;;;;;;;10.8;15.8;;;;;;;7;65.3;99400;;;;
2021/11/05 18:34:05;;;;;;;26.4;30.9;;;;;;;7.1;65.5;99410;;;;
2021/11/05 18:44:05;;;;;;;26.4;30.9;;;;;;;7.2;65.4;99420;;;;
2021/11/05 18:54:05;;;;;;;26.4;30.9;;;;;;;7.3;65.6;99430;;;;
2021/11/05 19:04:10;;;;;;;57.1;71.9;;;;;;;7.5;65.7;99460;;;;
2021/11/05 19:14:05;;;;;;;57.1;71.9;;;;;;;7.7;65.8;99470;;;;
2021/11/05 19:24:08;;;;;;;57.1;71.9;;;;;;;8;66.7;99470;;;;
2021/11/05 19:34:05;;;;;;;18.7;24.4;;;;;;;8.1;67.2;99480;;;;
2021/11/05 19:44:05;;;;;;;18.7;24.4;;;;;;;8.2;67.8;99490;;;;
2021/11/05 19:55:05;;;;;;;18.7;24.4;;;;;;;8.2;67.8;99510;;;;
2021/11/05 20:05:07;;;;;;;12.5;15.9;;;;;;;8.2;68.1;99520;;;;
2021/11/05 20:15:07;;;;;;;12.5;15.9;;;;;;;8.2;68.6;99530;;;;
2021/11/05 20:25:05;;;;;;;12.5;15.9;;;;;;;7.9;68.4;99550;;;;
2021/11/05 20:35:05;;;;;;;9.8;13;;;;;;;7.8;69.3;99560;;;;
2021/11/05 20:46:07;;;;;;;9.8;13;;;;;;;7.8;70;99560;;;;
2021/11/05 20:56:05;;;;;;;9.8;13;;;;;;;7.7;70;99580;;;;
2021/11/05 21:06:05;;;;;;;12.7;17.3;;;;;;;7.6;70;99580;;;;
2021/11/05 21:16:05;;;;;;;12.7;17.3;;;;;;;7.5;69.8;99600;;;;
2021/11/05 21:26:05;;;;;;;12.7;17.3;;;;;;;7.1;70.5;99600;;;;
2021/11/05 21:36:05;;;;;;;8.1;10.5;;;;;;;6.9;71.4;99610;;;;
2021/11/05 21:46:05;;;;;;;8.1;10.5;;;;;;;6.8;71.6;99620;;;;
2021/11/05 21:56:06;;;;;;;8.1;10.5;;;;;;;6.9;71.6;99620;;;;
2021/11/05 22:06:05;;;;;;;8.3;12.1;;;;;;;7;71.2;99630;;;;
2021/11/05 22:16:05;;;;;;;8.3;12.1;;;;;;;7.2;70.7;99630;;;;
2021/11/05 22:26:05;;;;;;;8.3;12.1;;;;;;;7.3;70.4;99640;;;;
2021/11/05 22:36:05;;;;;;;7.1;9.9;;;;;;;7.4;70.6;99650;;;;
2021/11/05 22:46:05;;;;;;;7.1;9.9;;;;;;;7.5;70;99650;;;;
2021/11/05 22:56:05;;;;;;;7.1;9.9;;;;;;;7.5;70.3;99650;;;;
2021/11/05 23:06:05;;;;;;;9.4;13.5;;;;;;;7.3;71;99670;;;;
2021/11/05 23:16:05;;;;;;;9.4;13.5;;;;;;;7.4;71.4;99690;;;;
2021/11/05 23:26:05;;;;;;;9.4;13.5;;;;;;;7.4;71.7;99690;;;;
2021/11/05 23:36:05;;;;;;;14.1;17.7;;;;;;;7.4;71.5;99700;;;;
2021/11/05 23:47:05;;;;;;;14.1;17.7;;;;;;;7.5;71;99690;;;;
2021/11/05 23:57:05;;;;;;;14.1;17.7;;;;;;;7.5;70.7;99700;;;;
